»·PEaware :: N261AB KRKS-KASE

N261AB :: KRKS-KASE

FLIGHT INFORMATION

Flight Status: Arrived
Operator: Privately registered:
United States
More flights under this callsign
Pilot: Brian K. (18535)
Aircraft: Diamond DA-62
(DA62)
More flights by this aircraft type
Origin: KRKS Rock Springs-Sweetwater
United States
Destination: KASE Aspen-Pitkin Co/Sardy
United States
More flights between these airports :: More routes between these airports
Route:
File this flight plan on PilotEdge
Remarks:
Altitude:
(Current/Filed)
11,500ft
Speed:
(Current/Filed)
160kts
Departed: 18-Dec-19 09:58 AM
Arrived: 18-Dec-19 11:03 AM
Distance/Time
Traveled:
174nm/1:05
Distance/Time
To Go:
Arrived

Flight Plot

Page will automatically refresh every two minutes.

Flight plan parsing failed; only flown route is shown


Map Options




Map Legend


Flown Route
Filed Route
Departure Airport
Arrival Airport
Navaid (VOR, NDB)
Fix

Horizontal Profiles

Position Reports

Time Latitude Longitude Heading Altitude Ground
Speed
18-Dec-19 09:49 41.598570 -109.064356 315 6763ft 0kts
18-Dec-19 09:50 41.598570 -109.064356 315 6763ft 0kts
18-Dec-19 09:51 41.598570 -109.064356 315 6763ft 0kts
18-Dec-19 09:52 41.598570 -109.064356 315 6763ft 0kts
18-Dec-19 09:53 41.598570 -109.064356 315 6763ft 0kts
18-Dec-19 09:54 41.598570 -109.064356 315 6763ft 0kts
18-Dec-19 09:55 41.599048 -109.063921 43 6763ft 5kts
18-Dec-19 09:56 41.598856 -109.060777 105 6763ft 8kts
18-Dec-19 09:57 41.587740 -109.073924 219 7008ft 117kts
18-Dec-19 09:58 41.557036 -109.081493 135 8127ft 140kts
18-Dec-19 09:59 41.529029 -109.042681 133 9079ft 152kts
18-Dec-19 10:00 41.497562 -109.001501 149 9889ft 162kts
18-Dec-19 10:01 41.457274 -108.972855 157 10697ft 164kts
18-Dec-19 10:02 41.416383 -108.945428 159 11464ft 166kts
18-Dec-19 10:03 41.371832 -108.915623 158 11498ft 183kts
18-Dec-19 10:04 41.325827 -108.884843 158 11497ft 184kts
18-Dec-19 10:05 41.279748 -108.854075 158 11496ft 183kts
18-Dec-19 10:06 41.234211 -108.823723 158 11497ft 181kts
18-Dec-19 10:07 41.189101 -108.793701 158 11497ft 180kts
18-Dec-19 10:08 41.144155 -108.763759 158 11497ft 180kts
18-Dec-19 10:09 41.099080 -108.733793 158 11498ft 180kts
18-Dec-19 10:10 41.054370 -108.704183 156 11484ft 179kts
18-Dec-19 10:11 41.009173 -108.674285 155 11423ft 178kts
18-Dec-19 10:12 40.964758 -108.644951 154 11424ft 177kts
18-Dec-19 10:13 40.920824 -108.615934 154 11446ft 175kts
18-Dec-19 10:14 40.877301 -108.587267 154 11476ft 175kts
18-Dec-19 10:15 40.833610 -108.558541 154 11505ft 175kts
18-Dec-19 10:16 40.789697 -108.529709 154 11532ft 175kts
18-Dec-19 10:17 40.745920 -108.501014 153 11532ft 175kts
18-Dec-19 10:18 40.702212 -108.472395 154 11531ft 175kts
18-Dec-19 10:19 40.658570 -108.443867 154 11525ft 175kts
18-Dec-19 10:20 40.614735 -108.415256 154 11518ft 175kts
18-Dec-19 10:21 40.570933 -108.386710 154 11512ft 175kts
18-Dec-19 10:22 40.527092 -108.358179 154 11505ft 175kts
18-Dec-19 10:23 40.483736 -108.330005 154 11499ft 175kts
18-Dec-19 10:24 40.439928 -108.301579 154 11492ft 175kts
18-Dec-19 10:25 40.396027 -108.273135 154 11486ft 175kts
18-Dec-19 10:26 40.352139 -108.244740 154 11479ft 175kts
18-Dec-19 10:27 40.308333 -108.216440 154 11477ft 175kts
18-Dec-19 10:28 40.264603 -108.188230 154 11477ft 175kts
18-Dec-19 10:29 40.220774 -108.159997 154 11477ft 175kts
18-Dec-19 10:30 40.176464 -108.131496 154 11477ft 175kts
18-Dec-19 10:31 40.132619 -108.103335 154 11477ft 175kts
18-Dec-19 10:32 40.088656 -108.075139 154 11477ft 175kts
18-Dec-19 10:33 40.044669 -108.046968 154 11477ft 175kts
18-Dec-19 10:34 40.000775 -108.018897 154 11477ft 175kts
18-Dec-19 10:35 39.956990 -107.990937 154 11477ft 175kts
18-Dec-19 10:36 39.913103 -107.962951 154 11477ft 175kts
18-Dec-19 10:37 39.869267 -107.935038 154 11478ft 175kts
18-Dec-19 10:38 39.825258 -107.907055 154 11483ft 175kts
18-Dec-19 10:39 39.781607 -107.879340 154 11504ft 174kts
18-Dec-19 10:40 39.737779 -107.851552 154 11527ft 174kts
18-Dec-19 10:41 39.693998 -107.823831 154 11549ft 174kts
18-Dec-19 10:42 39.650286 -107.796195 154 11559ft 174kts
18-Dec-19 10:43 39.606439 -107.768511 154 11559ft 174kts
18-Dec-19 10:44 39.592921 -107.711040 97 11554ft 179kts
18-Dec-19 10:45 39.586669 -107.646588 98 11545ft 180kts
18-Dec-19 10:46 39.580391 -107.581834 97 11535ft 180kts
18-Dec-19 10:47 39.574113 -107.516760 97 11524ft 181kts
18-Dec-19 10:48 39.567912 -107.451892 97 11517ft 181kts
18-Dec-19 10:49 39.561690 -107.386873 101 11508ft 180kts
18-Dec-19 10:50 39.533641 -107.334967 128 11506ft 174kts
18-Dec-19 10:51 39.504112 -107.285312 128 11505ft 172kts
18-Dec-19 10:52 39.474943 -107.236211 128 11519ft 171kts
18-Dec-19 10:53 39.445678 -107.186787 128 11100ft 173kts
18-Dec-19 10:54 39.416414 -107.137121 128 10492ft 172kts
18-Dec-19 10:55 39.387167 -107.087745 128 9889ft 173kts
18-Dec-19 10:56 39.357817 -107.038958 128 9477ft 164kts
18-Dec-19 10:57 39.335637 -106.990427 99 9336ft 161kts
18-Dec-19 10:58 39.321718 -106.943973 145 8846ft 128kts
18-Dec-19 10:59 39.296375 -106.912007 108 8523ft 132kts
18-Dec-19 11:00 39.274203 -106.886438 164 8373ft 107kts
18-Dec-19 11:01 39.245034 -106.878955 167 8417ft 103kts
18-Dec-19 11:02 39.225789 -106.869971 127 7838ft 15kts
18-Dec-19 11:03 39.225377 -106.868724 159 7838ft 9kts
18-Dec-19 11:04 39.223081 -106.867132 157 7838ft 5kts
18-Dec-19 11:05 39.222926 -106.866890 68 7838ft 0kts

Navigation Log

Ident Type
Flight plan parsing failed, navigation log unavailable